createdAt,value
2018-09-13T00:00:52.459Z,1.00
2018-09-13T00:03:27.592Z,1.00
2018-09-13T00:06:04.544Z,1.00
2018-09-13T00:08:39.767Z,1.00
2018-09-13T00:11:13.919Z,1.00
2018-09-13T00:13:48.145Z,1.00
2018-09-13T00:16:24.282Z,1.00
2018-09-13T00:18:58.380Z,1.00
2018-09-13T00:21:32.780Z,1.00
2018-09-13T00:24:07.083Z,1.00
2018-09-13T00:26:42.132Z,1.00
2018-09-13T00:29:16.452Z,1.00
2018-09-13T00:31:50.717Z,1.00
2018-09-13T00:34:26.205Z,1.00
2018-09-13T00:37:00.492Z,1.00
2018-09-13T00:39:35.260Z,1.00
2018-09-13T00:42:09.612Z,1.00
2018-09-13T00:44:43.796Z,1.00
2018-09-13T00:47:18.117Z,1.00
2018-09-13T00:49:52.520Z,1.00
2018-09-13T00:52:27.314Z,1.00
2018-09-13T00:55:01.418Z,1.00
2018-09-13T00:57:35.685Z,1.00
2018-09-13T01:00:09.886Z,1.00
2018-09-13T01:02:44.100Z,1.00
2018-09-13T01:05:18.346Z,1.50
2018-09-13T01:07:52.614Z,2.30
2018-09-13T01:10:26.760Z,2.70
2018-09-13T01:13:00.920Z,3.20
2018-09-13T01:15:35.781Z,3.70
2018-09-13T01:18:10.029Z,3.90
2018-09-13T01:20:44.607Z,4.40
2018-09-13T01:23:19.148Z,4.90
2018-09-13T01:25:53.331Z,4.90
2018-09-13T01:28:27.499Z,4.90
2018-09-13T01:31:01.581Z,5.00
2018-09-13T01:33:35.753Z,4.90
2018-09-13T01:36:10.648Z,4.90
2018-09-13T01:38:44.960Z,3.90
2018-09-13T01:41:19.240Z,3.10
2018-09-13T01:43:53.460Z,2.00
2018-09-13T01:46:27.764Z,1.40
2018-09-13T01:49:02.612Z,1.00
2018-09-13T01:51:36.709Z,1.00
2018-09-13T01:54:11.441Z,1.00
2018-09-13T01:56:46.920Z,1.00
2018-09-13T01:59:21.293Z,1.00
2018-09-13T02:01:55.735Z,1.00
2018-09-13T02:04:30.007Z,1.00
2018-09-13T02:07:04.282Z,1.00
2018-09-13T02:09:38.595Z,1.00
2018-09-13T02:12:13.041Z,1.00
2018-09-13T02:14:47.740Z,1.00
2018-09-13T02:17:23.064Z,1.00
2018-09-13T02:19:58.533Z,1.00
2018-09-13T02:22:32.975Z,1.00
2018-09-13T02:25:07.261Z,1.00
2018-09-13T02:27:41.566Z,1.00
2018-09-13T02:30:15.720Z,1.00
2018-09-13T02:32:50.273Z,1.00
2018-09-13T02:35:25.477Z,1.00
2018-09-13T02:37:59.578Z,1.00
2018-09-13T02:40:33.759Z,1.00
2018-09-13T02:43:08.013Z,1.10
2018-09-13T02:45:43.371Z,1.30
2018-09-13T02:48:19.247Z,1.50
2018-09-13T02:50:53.772Z,2.10
2018-09-13T02:53:28.060Z,2.40
2018-09-13T02:56:02.368Z,2.00
2018-09-13T02:58:39.869Z,1.60
2018-09-13T03:01:14.219Z,2.00
2018-09-13T03:03:48.692Z,2.40
2018-09-13T03:06:22.920Z,2.80
2018-09-13T03:08:57.225Z,2.60
2018-09-13T03:11:31.595Z,2.90
2018-09-13T03:14:05.796Z,3.70
2018-09-13T03:16:40.217Z,3.20
2018-09-13T03:19:14.623Z,3.00
2018-09-13T03:21:48.938Z,3.10
2018-09-13T03:24:23.320Z,3.20
2018-09-13T03:26:57.554Z,2.40
2018-09-13T03:29:31.906Z,2.30
2018-09-13T03:32:06.202Z,1.50
2018-09-13T03:34:42.307Z,1.10
2018-09-13T03:37:18.468Z,1.30
2018-09-13T03:39:54.445Z,1.20
2018-09-13T03:42:29.461Z,1.00
2018-09-13T03:45:27.639Z,1.00
2018-09-13T03:48:03.547Z,1.00
2018-09-13T03:50:37.761Z,1.40
2018-09-13T03:53:12.222Z,1.80
2018-09-13T03:55:46.764Z,2.10
2018-09-13T03:58:22.609Z,2.80
2018-09-13T04:00:58.424Z,2.60
2018-09-13T04:03:32.756Z,2.20
2018-09-13T04:06:07.096Z,1.60
2018-09-13T04:08:41.303Z,1.30
2018-09-13T04:11:16.334Z,1.70
2018-09-13T04:13:50.828Z,1.90
2018-09-13T04:16:25.820Z,2.00
2018-09-13T04:19:00.059Z,2.20
2018-09-13T04:21:35.072Z,2.70
2018-09-13T04:24:12.166Z,2.50
2018-09-13T04:26:48.601Z,2.40
2018-09-13T04:29:23.370Z,2.20
2018-09-13T04:31:57.479Z,2.20
2018-09-13T04:34:31.736Z,2.30
2018-09-13T04:37:06.450Z,2.40
2018-09-13T04:39:41.840Z,3.00
2018-09-13T04:42:16.689Z,3.20
2018-09-13T04:44:50.991Z,3.10
2018-09-13T04:47:25.260Z,3.00
2018-09-13T04:49:59.455Z,3.10
2018-09-13T04:52:33.955Z,3.40
2018-09-13T04:55:08.178Z,3.70
2018-09-13T04:57:42.347Z,3.80
2018-09-13T05:00:16.754Z,4.10
2018-09-13T05:02:51.049Z,4.00
2018-09-13T05:05:25.406Z,4.50
2018-09-13T05:08:00.614Z,4.00
2018-09-13T05:10:36.090Z,3.70
2018-09-13T05:13:10.387Z,3.50
2018-09-13T05:15:44.657Z,3.10
2018-09-13T05:18:19.474Z,2.50
2018-09-13T05:20:55.076Z,2.20
2018-09-13T05:23:30.032Z,2.20
2018-09-13T05:26:04.322Z,2.20
2018-09-13T05:28:38.638Z,1.60
2018-09-13T05:31:13.618Z,1.10
2018-09-13T05:33:49.224Z,1.00
2018-09-13T05:36:23.467Z,1.00
2018-09-13T05:38:57.736Z,1.00
2018-09-13T05:41:31.851Z,1.00
2018-09-13T05:44:06.156Z,1.00
2018-09-13T05:46:40.350Z,1.00
2018-09-13T05:49:14.817Z,1.00
2018-09-13T05:51:49.347Z,1.00
2018-09-13T05:54:24.525Z,1.00
2018-09-13T05:56:59.947Z,1.00
2018-09-13T05:59:34.114Z,1.00
2018-09-13T06:02:08.584Z,1.00
2018-09-13T06:04:42.896Z,1.00
2018-09-13T06:07:17.387Z,1.00
2018-09-13T06:09:51.593Z,1.00
2018-09-13T06:12:26.183Z,1.00
2018-09-13T06:15:00.818Z,1.00
2018-09-13T06:17:35.176Z,1.00
2018-09-13T06:20:09.560Z,1.00
2018-09-13T06:22:43.807Z,1.00
2018-09-13T06:25:18.612Z,1.00
2018-09-13T06:27:52.944Z,1.00
2018-09-13T06:30:28.068Z,1.00
2018-09-13T06:33:02.920Z,1.00
2018-09-13T06:35:37.349Z,1.00
2018-09-13T06:38:11.887Z,1.00
2018-09-13T06:40:46.102Z,1.00
2018-09-13T06:43:20.302Z,1.00
2018-09-13T06:45:54.635Z,1.00
2018-09-13T06:48:28.827Z,1.00
2018-09-13T06:51:03.364Z,1.00
2018-09-13T06:53:37.524Z,1.00
2018-09-13T06:56:11.708Z,1.00
2018-09-13T06:59:01.985Z,1.00
2018-09-13T07:01:36.408Z,1.00
2018-09-13T07:04:10.794Z,1.00
2018-09-13T07:06:45.217Z,1.00
2018-09-13T07:09:20.416Z,1.00
2018-09-13T07:11:54.752Z,1.00
2018-09-13T07:14:29.925Z,1.00
2018-09-13T07:17:06.823Z,1.00
2018-09-13T07:19:41.732Z,1.00
2018-09-13T07:22:16.292Z,1.00
2018-09-13T07:24:50.498Z,1.00
2018-09-13T07:27:25.883Z,1.00
2018-09-13T07:30:00.225Z,1.00
2018-09-13T07:32:34.717Z,1.00
2018-09-13T07:35:09.096Z,1.00
2018-09-13T07:37:44.125Z,1.00
2018-09-13T07:40:18.315Z,1.00
2018-09-13T07:42:52.619Z,1.00
2018-09-13T07:45:27.005Z,1.00
2018-09-13T07:48:01.465Z,1.00
2018-09-13T07:50:36.376Z,1.00
2018-09-13T07:53:10.559Z,1.00
2018-09-13T07:55:49.001Z,1.00
2018-09-13T07:58:23.491Z,1.00
2018-09-13T08:00:58.015Z,1.00
2018-09-13T08:03:32.321Z,1.00
2018-09-13T08:06:08.480Z,1.00
2018-09-13T08:08:43.359Z,1.00
2018-09-13T08:11:17.782Z,1.00
2018-09-13T08:13:52.451Z,1.00
2018-09-13T08:16:27.679Z,1.00
2018-09-13T08:19:03.067Z,1.00
2018-09-13T08:21:37.340Z,1.00
2018-09-13T08:24:11.496Z,1.00
2018-09-13T08:26:45.683Z,1.00
2018-09-13T08:29:20.092Z,1.00
2018-09-13T08:31:54.455Z,1.00
2018-09-13T08:34:28.623Z,1.00
2018-09-13T08:37:03.063Z,1.00
2018-09-13T08:39:37.335Z,1.00
2018-09-13T08:42:12.737Z,1.00
2018-09-13T08:44:47.172Z,1.00
2018-09-13T08:47:21.328Z,1.00
2018-09-13T08:49:55.632Z,1.00
2018-09-13T08:52:30.217Z,1.00
2018-09-13T08:55:05.012Z,1.00
2018-09-13T08:57:39.768Z,1.00
2018-09-13T09:00:14.433Z,1.00
2018-09-13T09:02:49.636Z,1.00
2018-09-13T09:05:23.948Z,1.00
2018-09-13T09:07:58.641Z,1.00
2018-09-13T09:10:32.770Z,1.00
2018-09-13T09:13:07.125Z,1.00
2018-09-13T09:15:41.324Z,1.00
2018-09-13T09:18:16.131Z,1.00
2018-09-13T09:20:50.312Z,1.00
2018-09-13T09:23:24.623Z,1.00
2018-09-13T09:25:58.950Z,1.00
2018-09-13T09:28:33.287Z,1.00
2018-09-13T09:31:08.535Z,1.00
2018-09-13T09:33:42.812Z,1.00
2018-09-13T09:36:17.106Z,1.00
2018-09-13T09:38:51.591Z,1.00
2018-09-13T09:41:25.765Z,1.00
2018-09-13T09:44:00.076Z,1.00
2018-09-13T09:46:35.138Z,1.00
2018-09-13T09:49:09.268Z,1.00
2018-09-13T09:51:43.371Z,1.00
2018-09-13T09:54:17.579Z,1.00
2018-09-13T09:56:51.975Z,1.00
2018-09-13T09:59:26.311Z,1.00
2018-09-13T10:02:06.163Z,1.00
2018-09-13T10:04:40.625Z,1.00
2018-09-13T10:07:14.960Z,1.00
2018-09-13T10:09:50.365Z,1.00
2018-09-13T10:12:25.606Z,1.00
2018-09-13T10:15:05.461Z,1.00
2018-09-13T10:17:44.872Z,1.00
2018-09-13T10:20:25.457Z,1.00
2018-09-13T10:23:05.084Z,1.00
2018-09-13T10:25:44.918Z,1.00
2018-09-13T10:28:24.903Z,1.00
2018-09-13T10:31:04.611Z,1.00
2018-09-13T10:33:46.167Z,1.00
2018-09-13T10:36:29.447Z,1.00
2018-09-13T10:39:09.922Z,1.00
2018-09-13T10:41:49.736Z,1.00
2018-09-13T10:44:29.983Z,1.00
2018-09-13T10:47:09.767Z,1.00
2018-09-13T10:49:49.987Z,1.00
2018-09-13T10:52:27.145Z,1.00
2018-09-13T10:55:01.413Z,1.00
2018-09-13T10:57:41.211Z,1.00
2018-09-13T11:00:15.605Z,1.00
2018-09-13T11:02:50.487Z,1.00
2018-09-13T11:05:24.786Z,1.00
2018-09-13T11:07:58.952Z,1.00
2018-09-13T11:10:40.161Z,1.00
2018-09-13T11:13:33.196Z,1.00
2018-09-13T11:16:07.572Z,1.00
2018-09-13T11:18:41.834Z,1.00
2018-09-13T11:21:16.300Z,1.00
2018-09-13T11:23:50.543Z,1.00
2018-09-13T11:26:24.737Z,1.00
2018-09-13T11:28:58.931Z,1.00
2018-09-13T11:31:33.458Z,1.00
2018-09-13T11:34:07.740Z,1.00
2018-09-13T11:36:42.112Z,1.00
2018-09-13T11:39:16.459Z,1.00
2018-09-13T11:41:50.796Z,1.00
2018-09-13T11:44:26.172Z,1.00
2018-09-13T11:47:00.434Z,1.00
2018-09-13T11:49:34.862Z,1.00
2018-09-13T11:52:09.176Z,1.00
2018-09-13T11:54:43.363Z,1.00
2018-09-13T11:57:17.643Z,1.00
2018-09-13T11:59:51.771Z,1.00
2018-09-13T12:02:26.188Z,1.00
2018-09-13T12:05:01.564Z,1.00
2018-09-13T12:07:35.850Z,1.00
2018-09-13T12:10:10.310Z,1.00
2018-09-13T12:12:44.672Z,1.00
2018-09-13T12:15:20.158Z,1.00
2018-09-13T12:17:54.539Z,1.00
2018-09-13T12:20:28.654Z,1.00
2018-09-13T12:23:03.010Z,1.00
2018-09-13T12:25:37.287Z,1.00
2018-09-13T12:28:11.631Z,1.00
2018-09-13T12:30:46.219Z,1.00
2018-09-13T12:33:20.364Z,1.00
2018-09-13T12:35:54.759Z,1.00
2018-09-13T12:38:28.965Z,1.00
2018-09-13T12:41:03.926Z,1.00
2018-09-13T12:43:38.180Z,1.00
2018-09-13T12:46:13.505Z,1.00
2018-09-13T12:48:47.825Z,1.00
2018-09-13T12:51:22.158Z,1.00
2018-09-13T12:53:56.298Z,1.00
2018-09-13T12:56:30.564Z,1.00
2018-09-13T12:59:04.825Z,1.00
2018-09-13T13:01:39.080Z,1.00
2018-09-13T13:04:14.069Z,1.00
2018-09-13T13:06:48.357Z,1.00
2018-09-13T13:09:23.251Z,1.00
2018-09-13T13:11:57.466Z,1.00
2018-09-13T13:14:31.701Z,1.00
2018-09-13T13:17:06.058Z,1.00
2018-09-13T13:19:40.232Z,1.00
2018-09-13T13:22:14.611Z,1.00
2018-09-13T13:24:48.937Z,1.00
2018-09-13T13:27:23.426Z,1.00
2018-09-13T13:29:58.792Z,1.00
2018-09-13T13:32:33.885Z,1.00
2018-09-13T13:35:08.155Z,1.00
2018-09-13T13:37:42.599Z,1.00
2018-09-13T13:40:16.980Z,1.00
2018-09-13T13:42:51.185Z,1.00
2018-09-13T13:45:25.585Z,1.00
2018-09-13T13:48:00.033Z,1.00
2018-09-13T13:50:34.694Z,1.00
2018-09-13T13:53:08.879Z,1.00
2018-09-13T13:55:43.668Z,1.00
2018-09-13T13:58:17.956Z,1.00
2018-09-13T14:00:52.227Z,1.00
2018-09-13T14:03:26.630Z,1.00
2018-09-13T14:06:00.995Z,1.00
2018-09-13T14:08:35.389Z,1.00
2018-09-13T14:11:09.675Z,1.00
2018-09-13T14:13:44.141Z,1.00
2018-09-13T14:16:18.918Z,1.00
2018-09-13T14:18:54.288Z,1.00
2018-09-13T14:21:29.011Z,1.00
2018-09-13T14:24:03.225Z,1.00
2018-09-13T14:26:37.540Z,1.00
2018-09-13T14:29:11.862Z,1.00
2018-09-13T14:31:46.140Z,1.00
2018-09-13T14:34:20.747Z,1.00
2018-09-13T14:36:55.328Z,1.00
2018-09-13T14:39:29.841Z,1.00
2018-09-13T14:42:03.988Z,1.00
2018-09-13T14:44:38.392Z,1.00
2018-09-13T14:47:12.836Z,1.00
2018-09-13T14:49:47.184Z,1.00
2018-09-13T14:52:21.530Z,1.00
2018-09-13T14:54:55.773Z,1.00
2018-09-13T14:57:30.089Z,1.00
2018-09-13T15:00:04.608Z,1.00
2018-09-13T15:02:38.742Z,1.00
2018-09-13T15:05:12.960Z,1.00
2018-09-13T15:07:47.339Z,1.00
2018-09-13T15:10:21.712Z,1.00
2018-09-13T15:12:56.218Z,1.00
2018-09-13T15:15:30.800Z,1.00
2018-09-13T15:18:05.295Z,1.00
2018-09-13T15:20:40.291Z,1.00
2018-09-13T15:23:18.173Z,1.00
2018-09-13T15:25:52.396Z,1.00
2018-09-13T15:28:26.640Z,1.00
2018-09-13T15:31:01.363Z,1.00
2018-09-13T15:33:35.482Z,1.00
2018-09-13T15:36:09.926Z,1.00
2018-09-13T15:38:44.075Z,1.00
2018-09-13T15:41:18.516Z,1.00
2018-09-13T15:43:53.493Z,1.00
2018-09-13T15:46:27.814Z,1.00
2018-09-13T15:49:02.184Z,1.00
2018-09-13T15:51:36.652Z,1.00
2018-09-13T15:54:11.051Z,1.00
2018-09-13T15:56:45.262Z,1.00
2018-09-13T15:59:19.561Z,1.00
2018-09-13T16:01:53.775Z,1.00
2018-09-13T16:04:28.146Z,1.00
2018-09-13T16:07:02.573Z,1.00
2018-09-13T16:09:36.968Z,1.00
2018-09-13T16:12:11.218Z,1.00
2018-09-13T16:14:45.491Z,1.00
2018-09-13T16:17:19.696Z,1.00
2018-09-13T16:19:54.120Z,1.00
2018-09-13T16:22:28.452Z,1.00
2018-09-13T16:25:02.719Z,1.00
2018-09-13T16:27:36.913Z,1.00
2018-09-13T16:30:11.252Z,1.00
2018-09-13T16:32:45.792Z,1.00
2018-09-13T16:35:20.238Z,1.00
2018-09-13T16:38:00.062Z,1.00
2018-09-13T16:40:39.613Z,1.00
2018-09-13T16:43:15.760Z,1.00
2018-09-13T16:45:50.991Z,1.00
2018-09-13T16:48:30.259Z,1.00
2018-09-13T16:51:04.679Z,1.00
2018-09-13T16:53:39.505Z,1.00
2018-09-13T16:56:13.792Z,1.00
2018-09-13T16:58:48.038Z,1.00
2018-09-13T17:01:22.485Z,1.00
2018-09-13T17:03:56.729Z,1.00
2018-09-13T17:06:31.044Z,1.00
2018-09-13T17:09:08.269Z,1.00
2018-09-13T17:11:42.711Z,1.00
2018-09-13T17:14:17.596Z,1.00
2018-09-13T17:16:52.079Z,1.00
2018-09-13T17:19:26.359Z,1.00
2018-09-13T17:22:02.057Z,1.00
2018-09-13T17:24:36.524Z,1.00
2018-09-13T17:27:10.943Z,1.00
2018-09-13T17:30:03.865Z,1.00
2018-09-13T17:32:38.043Z,1.00
2018-09-13T17:35:12.258Z,1.00
2018-09-13T17:37:46.859Z,1.00
2018-09-13T17:40:21.137Z,1.00
2018-09-13T17:42:55.663Z,1.00
2018-09-13T17:45:30.539Z,1.00
2018-09-13T17:48:04.932Z,1.00
2018-09-13T17:50:39.203Z,1.00
2018-09-13T17:53:13.518Z,1.00
2018-09-13T17:55:47.949Z,1.00
2018-09-13T17:58:22.266Z,1.00
2018-09-13T18:00:56.520Z,1.00
2018-09-13T18:03:31.552Z,1.00
2018-09-13T18:06:05.954Z,1.00
2018-09-13T18:08:40.569Z,1.00
2018-09-13T18:11:14.900Z,1.00
2018-09-13T18:13:49.336Z,1.00
2018-09-13T18:16:23.675Z,1.00
2018-09-13T18:18:57.886Z,1.00
2018-09-13T18:21:32.208Z,1.00
2018-09-13T18:24:06.754Z,1.00
2018-09-13T18:26:41.154Z,1.00
2018-09-13T18:29:15.590Z,1.00
2018-09-13T18:31:49.971Z,1.00
2018-09-13T18:34:24.529Z,1.00
2018-09-13T18:36:58.922Z,1.00
2018-09-13T18:39:33.634Z,1.00
2018-09-13T18:42:07.991Z,1.00
2018-09-13T18:44:42.326Z,1.00
2018-09-13T18:47:17.135Z,1.00
2018-09-13T18:49:51.707Z,1.00
2018-09-13T18:52:26.311Z,1.00
2018-09-13T18:55:01.934Z,1.00
2018-09-13T18:57:36.462Z,1.00
2018-09-13T19:00:10.856Z,1.10
2018-09-13T19:02:45.217Z,1.80
2018-09-13T19:05:22.392Z,2.60
2018-09-13T19:07:56.680Z,4.00
2018-09-13T19:10:31.084Z,4.40
2018-09-13T19:13:05.263Z,4.40
2018-09-13T19:15:39.825Z,4.30
2018-09-13T19:18:14.058Z,5.70
2018-09-13T19:20:49.792Z,6.60
2018-09-13T19:23:24.196Z,6.70
2018-09-13T19:25:58.505Z,7.20
2018-09-13T19:28:32.716Z,8.10
2018-09-13T19:31:07.728Z,8.60
2018-09-13T19:33:42.016Z,9.20
2018-09-13T19:36:16.219Z,9.80
2018-09-13T19:38:50.408Z,9.80
2018-09-13T19:41:25.251Z,10.00
2018-09-13T19:43:59.685Z,10.50
2018-09-13T19:46:34.058Z,11.40
2018-09-13T19:49:08.665Z,11.70
2018-09-13T19:51:43.150Z,11.70
2018-09-13T19:54:17.501Z,11.90
2018-09-13T19:56:52.648Z,12.60
2018-09-13T19:59:34.302Z,12.90
2018-09-13T20:02:09.329Z,13.10
2018-09-13T20:04:43.857Z,13.40
2018-09-13T20:07:18.176Z,13.80
2018-09-13T20:09:54.653Z,14.00
2018-09-13T20:12:28.900Z,14.40
2018-09-13T20:15:03.348Z,15.20
2018-09-13T20:17:37.781Z,15.30
2018-09-13T20:20:13.396Z,15.60
2018-09-13T20:22:48.533Z,15.90
2018-09-13T20:25:22.893Z,16.20
2018-09-13T20:27:57.335Z,16.40
2018-09-13T20:30:31.701Z,16.50
2018-09-13T20:33:06.190Z,16.70
2018-09-13T20:35:41.027Z,17.30
2018-09-13T20:38:16.524Z,17.50
2018-09-13T20:40:52.585Z,17.90
2018-09-13T20:43:27.016Z,18.20
2018-09-13T20:46:02.806Z,18.40
2018-09-13T20:48:36.968Z,18.60
2018-09-13T20:51:11.280Z,18.80
2018-09-13T20:53:45.534Z,18.80
2018-09-13T20:56:20.640Z,18.80
2018-09-13T20:58:54.916Z,18.90
2018-09-13T21:01:30.012Z,18.80
2018-09-13T21:04:04.412Z,18.80
2018-09-13T21:06:39.299Z,18.80
2018-09-13T21:09:13.619Z,18.90
2018-09-13T21:11:47.952Z,19.00
2018-09-13T21:14:22.860Z,19.10
2018-09-13T21:16:57.111Z,19.30
2018-09-13T21:19:40.465Z,19.30
2018-09-13T21:22:18.761Z,19.50
2018-09-13T21:24:53.116Z,19.60
2018-09-13T21:27:28.016Z,19.80
2018-09-13T21:30:02.318Z,19.80
2018-09-13T21:32:36.709Z,19.80
2018-09-13T21:35:11.056Z,19.80
2018-09-13T21:37:45.479Z,19.70
2018-09-13T21:40:20.426Z,19.70
2018-09-13T21:42:55.084Z,19.80
2018-09-13T21:45:29.383Z,19.70
2018-09-13T21:48:04.012Z,19.80
2018-09-13T21:50:39.751Z,19.80
2018-09-13T21:53:14.149Z,19.90
2018-09-13T21:55:49.681Z,19.80
2018-09-13T21:58:24.811Z,19.80
2018-09-13T22:00:59.253Z,19.80
2018-09-13T22:03:34.395Z,19.70
2018-09-13T22:06:11.161Z,19.80
2018-09-13T22:08:45.679Z,19.90
2018-09-13T22:11:20.984Z,19.80
2018-09-13T22:13:55.672Z,19.80
2018-09-13T22:16:30.548Z,19.80
2018-09-13T22:19:04.861Z,19.80
2018-09-13T22:21:39.264Z,20.10
2018-09-13T22:24:13.577Z,19.80
2018-09-13T22:26:49.750Z,19.80
2018-09-13T22:29:25.453Z,19.90
2018-09-13T22:31:59.833Z,19.90
2018-09-13T22:34:34.669Z,19.90
2018-09-13T22:37:14.027Z,20.70
2018-09-13T22:39:49.018Z,20.60
2018-09-13T22:42:23.177Z,20.70
2018-09-13T22:45:06.039Z,20.70
2018-09-13T22:47:42.123Z,20.70
2018-09-13T22:50:17.242Z,20.70
2018-09-13T22:52:56.040Z,20.10
2018-09-13T22:55:33.209Z,20.10
2018-09-13T22:58:13.586Z,20.20
2018-09-13T23:00:47.896Z,20.30
2018-09-13T23:03:23.582Z,20.30
2018-09-13T23:05:58.003Z,20.50
2018-09-13T23:08:32.326Z,20.50
2018-09-13T23:11:07.338Z,20.50
2018-09-13T23:13:41.682Z,20.50
2018-09-13T23:16:16.720Z,20.50
2018-09-13T23:18:51.122Z,20.50
2018-09-13T23:21:25.485Z,20.50
2018-09-13T23:24:00.314Z,20.60
2018-09-13T23:26:34.905Z,21.10
2018-09-13T23:29:09.317Z,20.40
2018-09-13T23:31:44.575Z,20.30
2018-09-13T23:34:19.762Z,20.40
2018-09-13T23:36:54.290Z,20.40
2018-09-13T23:39:31.448Z,20.40
2018-09-13T23:42:06.450Z,20.40
2018-09-13T23:44:40.717Z,21.10
2018-09-13T23:47:16.227Z,21.20
2018-09-13T23:49:52.992Z,21.00
2018-09-13T23:52:27.466Z,21.00
2018-09-13T23:55:01.710Z,21.00
2018-09-13T23:57:36.649Z,20.90
